Time;durP1;ratioP1;P1;durP2;ratioP2;P2;SDS_P1;SDS_P2;PMS_P1;PMS_P2;Temp;Humidity;BMP_temperature;BMP_pressure;BME280_temperature;BME280_humidity;BME280_pressure;Samples;Min_cycle;Max_cycle;Signal;HPM_P1;HPM_P2
2023/04/29 00:00:00;;;;;;;38.70;15.02;;;9.40;99.90;;;;;;4008380;29;20563;-86
2023/04/29 00:02:02;;;;;;;28.02;13.23;;;9.40;99.90;;;;;;4025299;29;20054;-85
2023/04/29 00:04:03;;;;;;;36.78;15.40;;;9.40;99.90;;;;;;4024189;29;20064;-85
2023/04/29 00:06:03;;;;;;;32.58;14.43;;;9.40;99.90;;;;;;4025956;29;20057;-85
2023/04/29 00:08:04;;;;;;;35.50;15.38;;;9.40;99.90;;;;;;4041450;29;20078;-85
2023/04/29 00:10:08;;;;;;;29.92;13.02;;;9.40;99.90;;;;;;4010295;29;20094;-85
2023/04/29 00:12:09;;;;;;;26.45;12.73;;;9.40;99.90;;;;;;4041729;29;20582;-85
2023/04/29 00:14:10;;;;;;;28.80;12.27;;;9.30;99.90;;;;;;4025484;29;20061;-85
2023/04/29 00:16:12;;;;;;;29.15;13.32;;;9.30;99.90;;;;;;4043689;29;20044;-85
2023/04/29 00:18:13;;;;;;;32.95;13.98;;;9.30;99.90;;;;;;4025769;29;20057;-84
2023/04/29 00:20:15;;;;;;;35.38;11.27;;;9.30;99.90;;;;;;4025841;29;20483;-85
2023/04/29 00:22:16;;;;;;;27.55;12.35;;;9.30;99.90;;;;;;4025703;29;20044;-85
2023/04/29 00:24:17;;;;;;;28.52;12.82;;;9.20;99.90;;;;;;4042178;29;20037;-84
2023/04/29 00:26:19;;;;;;;26.75;11.40;;;9.30;99.90;;;;;;4025652;29;20102;-85
2023/04/29 00:28:22;;;;;;;23.80;11.05;;;9.30;99.90;;;;;;4025072;29;20110;-84
2023/04/29 00:30:23;;;;;;;21.80;12.30;;;9.30;99.90;;;;;;4025975;29;20049;-85
2023/04/29 00:32:25;;;;;;;26.95;12.40;;;9.30;99.90;;;;;;4042085;29;20049;-85
2023/04/29 00:34:26;;;;;;;24.83;12.43;;;9.30;99.90;;;;;;4010959;29;20061;-85
2023/04/29 00:36:28;;;;;;;24.92;11.77;;;9.30;99.90;;;;;;4041965;29;20056;-84
2023/04/29 00:38:30;;;;;;;21.17;10.80;;;9.20;99.90;;;;;;4025742;29;20054;-84
2023/04/29 00:40:30;;;;;;;20.17;10.88;;;9.30;99.90;;;;;;4010496;29;20058;-83
2023/04/29 00:42:32;;;;;;;29.25;11.32;;;9.20;99.90;;;;;;4041002;29;20506;-84
2023/04/29 00:44:33;;;;;;;20.65;10.50;;;9.20;99.90;;;;;;4026261;29;20085;-84
2023/04/29 00:46:35;;;;;;;23.75;10.93;;;9.20;99.90;;;;;;4041321;29;20049;-84
2023/04/29 00:48:37;;;;;;;21.35;10.63;;;9.20;99.90;;;;;;4010580;29;20058;-84
2023/04/29 00:50:41;;;;;;;20.80;10.65;;;9.20;99.90;;;;;;4041889;29;20041;-84
2023/04/29 00:52:43;;;;;;;23.30;9.85;;;9.20;99.90;;;;;;4025568;29;20053;-85
2023/04/29 00:54:44;;;;;;;26.73;11.20;;;9.10;99.90;;;;;;4041233;29;20495;-85
2023/04/29 00:56:46;;;;;;;26.33;9.88;;;9.10;99.90;;;;;;4025157;29;20048;-84
2023/04/29 00:58:49;;;;;;;34.83;10.77;;;9.00;99.90;;;;;;4042465;29;20124;-85
2023/04/29 01:00:51;;;;;;;23.52;10.35;;;9.00;99.90;;;;;;4026525;29;20534;-85
2023/04/29 01:02:53;;;;;;;25.35;10.80;;;9.00;99.90;;;;;;4025069;29;20057;-84
2023/04/29 01:04:55;;;;;;;24.73;10.88;;;9.00;99.90;;;;;;4040579;29;20192;-85
2023/04/29 01:07:08;;;;;;;25.60;10.73;;;9.00;99.90;;;;;;4059160;29;20049;-84
2023/04/29 01:09:18;;;;;;;24.92;10.10;;;9.00;99.90;;;;;;4058406;29;20455;-85
2023/04/29 01:11:22;;;;;;;21.77;9.65;;;9.00;99.90;;;;;;4058621;29;20041;-84
2023/04/29 01:13:29;;;;;;;25.00;9.80;;;9.00;99.90;;;;;;4058365;29;20116;-84
2023/04/29 01:15:38;;;;;;;25.02;11.18;;;9.00;99.90;;;;;;4041950;29;20104;-84
2023/04/29 01:17:40;;;;;;;;;;;9.00;99.90;;;;;;4026919;29;20540;-84
2023/04/29 01:19:51;;;;;;;20.40;9.18;;;9.00;99.90;;;;;;4042037;29;19920;-85
2023/04/29 01:21:53;;;;;;;20.70;10.60;;;9.00;99.90;;;;;;4058675;29;20392;-85
2023/04/29 01:23:57;;;;;;;24.15;10.80;;;9.00;99.90;;;;;;4056073;29;20040;-85
2023/04/29 01:25:58;;;;;;;22.33;10.95;;;9.00;99.90;;;;;;4040307;29;20053;-85
2023/04/29 01:28:14;;;;;;;25.95;11.73;;;9.00;99.90;;;;;;4040733;29;20196;-84
2023/04/29 01:30:26;;;;;;;25.85;11.02;;;8.90;99.90;;;;;;4058028;29;20053;-85
2023/04/29 01:33:02;;;;;;;31.45;12.40;;;7.70;99.90;;;;;;4059535;29;20037;-85
2023/04/29 01:35:29;;;;;;;24.40;11.82;;;8.80;99.90;;;;;;4026979;29;20086;-84
2023/04/29 01:37:52;;;;;;;25.08;12.40;;;8.80;99.90;;;;;;4059742;29;20052;-84
2023/04/29 01:40:04;;;;;;;33.22;12.70;;;9.10;99.90;;;;;;4059829;29;20882;-84
2023/04/29 01:42:19;;;;;;;23.45;11.77;;;8.70;99.90;;;;;;4058193;29;20048;-85
2023/04/29 01:44:23;;;;;;;24.05;11.23;;;8.70;99.90;;;;;;4043356;29;20064;-85
2023/04/29 01:46:26;;;;;;;23.75;11.18;;;8.60;99.90;;;;;;4043841;29;20056;-85
2023/04/29 01:48:29;;;;;;;22.63;11.25;;;8.70;99.90;;;;;;4060459;29;20059;-85
2023/04/29 01:50:30;;;;;;;25.30;9.90;;;8.60;99.90;;;;;;4061373;29;20080;-84
2023/04/29 01:52:31;;;;;;;22.83;10.80;;;8.60;99.90;;;;;;4059418;29;20076;-85
2023/04/29 01:54:35;;;;;;;22.75;9.70;;;8.50;99.90;;;;;;4047326;29;20518;-84
2023/04/29 01:56:35;;;;;;;21.98;10.50;;;8.40;99.90;;;;;;4029510;29;20050;-84
2023/04/29 01:58:37;;;;;;;19.15;9.65;;;8.40;99.90;;;;;;4026427;29;20129;-84
2023/04/29 02:00:39;;;;;;;24.77;11.85;;;8.40;99.90;;;;;;4025881;29;20056;-84
2023/04/29 02:02:40;;;;;;;25.40;11.38;;;8.40;99.90;;;;;;4040674;29;20421;-84
2023/04/29 02:04:41;;;;;;;29.85;11.43;;;8.30;99.90;;;;;;4041990;29;20100;-84
2023/04/29 02:06:43;;;;;;;28.13;11.38;;;8.30;99.90;;;;;;4024625;29;20049;-85
2023/04/29 02:08:43;;;;;;;27.58;11.35;;;8.20;99.90;;;;;;4041431;29;20089;-85
2023/04/29 02:10:59;;;;;;;22.02;10.05;;;8.70;99.90;;;;;;4024272;29;20053;-85
2023/04/29 02:13:00;;;;;;;28.95;11.07;;;8.20;99.90;;;;;;4024378;29;20140;-85
2023/04/29 02:15:01;;;;;;;20.13;10.20;;;8.20;99.90;;;;;;4025829;29;20283;-84
2023/04/29 02:17:02;;;;;;;25.48;10.05;;;8.20;99.90;;;;;;4023980;29;20053;-84
2023/04/29 02:19:03;;;;;;;24.25;11.07;;;8.20;99.90;;;;;;4023825;29;20095;-85
2023/04/29 02:21:07;;;;;;;27.67;11.88;;;8.20;99.90;;;;;;4038495;29;20128;-85
2023/04/29 02:23:09;;;;;;;23.50;10.48;;;8.20;99.90;;;;;;4038802;29;20097;-85
2023/04/29 02:25:10;;;;;;;26.70;11.65;;;8.20;99.90;;;;;;4023053;29;20081;-85
2023/04/29 02:27:12;;;;;;;22.67;10.13;;;8.20;99.90;;;;;;4023447;29;20045;-85
2023/04/29 02:29:14;;;;;;;25.15;9.88;;;8.30;99.90;;;;;;4040335;29;20045;-85
2023/04/29 02:31:15;;;;;;;24.25;10.07;;;8.30;99.90;;;;;;4007782;29;20050;-85
2023/04/29 02:33:17;;;;;;;24.05;10.07;;;8.30;99.90;;;;;;4008034;29;20142;-85
2023/04/29 02:35:19;;;;;;;20.27;10.38;;;8.20;99.90;;;;;;4022847;29;20082;-84
2023/04/29 02:37:23;;;;;;;24.70;10.48;;;8.20;99.90;;;;;;4039361;29;20117;-85
2023/04/29 02:39:24;;;;;;;25.17;10.88;;;8.30;99.90;;;;;;4023920;29;20159;-85
2023/04/29 02:41:25;;;;;;;24.58;10.05;;;8.20;99.90;;;;;;4022899;29;20057;-85
2023/04/29 02:43:29;;;;;;;23.60;9.90;;;8.20;99.90;;;;;;4023082;29;20049;-85
2023/04/29 02:45:30;;;;;;;23.90;10.30;;;8.20;99.90;;;;;;4039192;29;20049;-85
2023/04/29 02:47:31;;;;;;;25.08;10.85;;;8.20;99.90;;;;;;4023148;29;20495;-84
2023/04/29 02:49:34;;;;;;;24.10;10.77;;;8.20;99.90;;;;;;4008291;29;20534;-85
2023/04/29 02:51:38;;;;;;;32.78;11.30;;;8.20;99.90;;;;;;4040031;29;20171;-84
2023/04/29 02:53:39;;;;;;;26.35;10.45;;;8.80;99.90;;;;;;4023682;29;20105;-85
2023/04/29 02:55:40;;;;;;;20.17;8.82;;;8.20;99.90;;;;;;4039967;29;20041;-85
2023/04/29 02:57:46;;;;;;;22.02;10.18;;;8.30;99.90;;;;;;4040475;29;20057;-85
2023/04/29 02:59:47;;;;;;;17.83;8.98;;;8.30;99.90;;;;;;4023925;29;20132;-84
2023/04/29 03:01:48;;;;;;;23.65;10.93;;;8.30;99.90;;;;;;4030421;29;20110;-84
2023/04/29 03:03:49;;;;;;;29.27;10.05;;;8.30;99.90;;;;;;4008251;29;20065;-84
2023/04/29 03:05:50;;;;;;;18.88;9.05;;;8.30;99.90;;;;;;4007865;29;20058;-84
2023/04/29 03:07:52;;;;;;;21.63;8.77;;;9.00;99.90;;;;;;4040439;29;20230;-84
2023/04/29 03:09:55;;;;;;;23.52;9.30;;;8.40;99.90;;;;;;4040334;29;20052;-84
2023/04/29 03:11:55;;;;;;;23.40;9.70;;;8.30;99.90;;;;;;4040392;29;20049;-84
2023/04/29 03:13:56;;;;;;;26.45;9.07;;;8.70;99.90;;;;;;4023057;29;20442;-84
2023/04/29 03:15:59;;;;;;;17.63;8.63;;;8.40;99.90;;;;;;4040149;29;20049;-84
2023/04/29 03:18:03;;;;;;;22.38;9.98;;;8.40;99.90;;;;;;4040722;29;20157;-84
2023/04/29 03:20:05;;;;;;;17.98;7.45;;;8.40;99.90;;;;;;4039675;29;20049;-84
2023/04/29 03:22:10;;;;;;;20.98;8.48;;;8.40;99.90;;;;;;4039901;29;20105;-84
2023/04/29 03:24:12;;;;;;;22.33;8.65;;;8.50;99.90;;;;;;4039474;29;20088;-84
2023/04/29 03:26:14;;;;;;;20.05;8.18;;;8.40;99.90;;;;;;4024422;29;20058;-84
2023/04/29 03:28:15;;;;;;;18.52;8.15;;;8.40;99.90;;;;;;4041051;29;20076;-84
2023/04/29 03:30:16;;;;;;;16.80;8.02;;;8.40;99.90;;;;;;4039729;29;20486;-84
2023/04/29 03:32:18;;;;;;;17.73;8.00;;;8.40;99.90;;;;;;4008570;29;20087;-84
2023/04/29 03:34:19;;;;;;;19.77;8.15;;;8.40;99.90;;;;;;4042674;29;20204;-84
2023/04/29 03:36:21;;;;;;;19.15;8.38;;;8.40;99.90;;;;;;4027211;29;20056;-85
2023/04/29 03:38:23;;;;;;;18.35;8.52;;;8.50;99.90;;;;;;4025538;29;20089;-85
2023/04/29 03:40:24;;;;;;;17.35;8.02;;;8.40;99.90;;;;;;4043929;29;20124;-85
2023/04/29 03:42:24;;;;;;;25.98;7.72;;;8.50;99.90;;;;;;4011589;29;20220;-85
2023/04/29 03:44:28;;;;;;;24.55;7.53;;;8.50;99.90;;;;;;4043345;29;20056;-85
2023/04/29 03:46:30;;;;;;;16.50;7.65;;;8.60;99.90;;;;;;4028191;29;20414;-84
2023/04/29 03:48:31;;;;;;;17.58;7.72;;;8.50;99.90;;;;;;4025274;29;20086;-84
2023/04/29 03:50:32;;;;;;;18.45;7.45;;;8.50;99.90;;;;;;4010892;29;20058;-84
2023/04/29 03:52:35;;;;;;;18.35;8.43;;;8.50;99.90;;;;;;4025113;29;20062;-84
2023/04/29 03:54:38;;;;;;;20.23;7.90;;;8.50;99.90;;;;;;4057544;29;20057;-84
2023/04/29 03:56:40;;;;;;;18.23;7.47;;;8.50;99.90;;;;;;4041449;29;20117;-84
2023/04/29 03:58:42;;;;;;;15.55;7.50;;;8.50;99.90;;;;;;4056029;29;20048;-84
2023/04/29 04:00:44;;;;;;;16.95;7.75;;;8.50;99.90;;;;;;4023415;29;20046;-84
2023/04/29 04:02:46;;;;;;;15.48;7.63;;;8.50;99.90;;;;;;4041339;29;20045;-84
2023/04/29 04:04:47;;;;;;;18.55;7.82;;;8.70;99.90;;;;;;4041977;29;20084;-84
2023/04/29 04:06:50;;;;;;;21.60;8.57;;;8.50;99.90;;;;;;4041212;29;20455;-84
2023/04/29 04:08:51;;;;;;;15.70;7.63;;;8.50;99.90;;;;;;4040544;29;20064;-84
2023/04/29 04:10:52;;;;;;;18.65;7.60;;;9.00;99.90;;;;;;4009705;29;20591;-84
2023/04/29 04:12:53;;;;;;;18.90;7.30;;;8.50;99.90;;;;;;4008791;29;20053;-84
2023/04/29 04:14:55;;;;;;;16.02;6.88;;;8.50;99.90;;;;;;4025191;29;20037;-84
2023/04/29 04:16:57;;;;;;;13.35;6.82;;;8.60;99.90;;;;;;4040031;29;20127;-83
2023/04/29 04:18:59;;;;;;;15.23;7.78;;;8.60;99.90;;;;;;4041870;29;20052;-83
2023/04/29 04:21:05;;;;;;;18.08;7.03;;;8.60;99.90;;;;;;4010123;29;20094;-84
2023/04/29 04:23:08;;;;;;;17.60;7.00;;;8.50;99.90;;;;;;4041043;29;20045;-84
2023/04/29 04:25:09;;;;;;;18.30;7.93;;;8.50;99.90;;;;;;4010871;29;20580;-83
2023/04/29 04:27:10;;;;;;;17.90;8.02;;;8.60;99.90;;;;;;4024410;29;20073;-83
2023/04/29 04:29:11;;;;;;;16.38;8.25;;;8.60;99.90;;;;;;4042389;29;20048;-83
2023/04/29 04:31:13;;;;;;;23.15;9.20;;;8.60;99.90;;;;;;4040842;29;20100;-84
2023/04/29 04:33:14;;;;;;;20.27;8.40;;;8.60;99.90;;;;;;4041071;29;20049;-84
2023/04/29 04:35:16;;;;;;;16.45;8.20;;;8.60;99.90;;;;;;4041313;29;20549;-83
2023/04/29 04:37:17;;;;;;;24.58;8.07;;;8.60;99.90;;;;;;4041094;29;20056;-84
2023/04/29 04:39:18;;;;;;;17.98;8.25;;;8.60;99.90;;;;;;4025801;29;20050;-84
2023/04/29 04:41:20;;;;;;;19.92;9.13;;;8.60;99.90;;;;;;4025194;29;20540;-84
2023/04/29 04:43:21;;;;;;;21.50;8.02;;;9.00;99.90;;;;;;4042249;29;20425;-84
2023/04/29 04:45:22;;;;;;;21.67;8.25;;;8.50;99.90;;;;;;4040823;29;20049;-84
2023/04/29 04:47:24;;;;;;;22.25;7.65;;;8.60;99.90;;;;;;4042626;29;20044;-84
2023/04/29 04:49:24;;;;;;;25.50;8.10;;;9.10;99.90;;;;;;4040052;29;20564;-84
2023/04/29 04:51:27;;;;;;;15.32;7.40;;;8.60;99.90;;;;;;4009979;29;20057;-84
2023/04/29 04:53:29;;;;;;;18.27;7.78;;;8.60;99.90;;;;;;4035456;29;20057;-85
2023/04/29 04:55:32;;;;;;;18.17;8.30;;;9.00;99.90;;;;;;4041445;29;20053;-84
2023/04/29 04:57:34;;;;;;;21.15;7.95;;;8.60;99.90;;;;;;4010906;29;20038;-84
2023/04/29 04:59:34;;;;;;;13.73;6.95;;;8.60;99.90;;;;;;4018723;29;20056;-84
2023/04/29 05:01:35;;;;;;;22.40;7.88;;;8.60;99.90;;;;;;4026092;29;20061;-84
2023/04/29 05:03:37;;;;;;;18.48;8.52;;;8.60;99.90;;;;;;4008916;29;20093;-84
2023/04/29 05:05:44;;;;;;;17.58;7.20;;;8.60;99.90;;;;;;4025805;29;20053;-84
2023/04/29 05:07:46;;;;;;;16.13;7.65;;;8.60;99.90;;;;;;4041662;29;20048;-83
2023/04/29 05:09:47;;;;;;;21.73;8.95;;;8.70;99.90;;;;;;4023123;29;20163;-83
2023/04/29 05:11:49;;;;;;;17.05;8.07;;;8.70;99.90;;;;;;4023245;29;20113;-83
2023/04/29 05:13:49;;;;;;;17.52;7.95;;;8.60;99.90;;;;;;4023404;29;20057;-84
2023/04/29 05:15:50;;;;;;;18.60;7.60;;;8.70;99.90;;;;;;4040903;29;20073;-84
2023/04/29 05:17:51;;;;;;;15.10;7.10;;;8.70;99.90;;;;;;4024291;29;20055;-83
2023/04/29 05:19:53;;;;;;;19.95;9.02;;;8.70;99.90;;;;;;4024650;29;20417;-84
2023/04/29 05:21:53;;;;;;;16.52;8.25;;;9.00;99.90;;;;;;4009212;29;20603;-84
2023/04/29 05:23:55;;;;;;;14.65;7.70;;;8.70;99.90;;;;;;4007721;29;20046;-84
2023/04/29 05:25:57;;;;;;;18.10;7.32;;;8.70;99.90;;;;;;4040256;29;20046;-85
2023/04/29 05:27:57;;;;;;;22.15;8.80;;;8.70;99.90;;;;;;4022939;29;20128;-84
2023/04/29 05:30:00;;;;;;;16.73;8.32;;;8.70;99.90;;;;;;4023545;29;20628;-84
2023/04/29 05:32:02;;;;;;;19.00;8.48;;;8.80;99.90;;;;;;4023090;29;20424;-84
2023/04/29 05:34:03;;;;;;;24.33;7.70;;;8.80;99.90;;;;;;4039010;29;20053;-84
2023/04/29 05:36:04;;;;;;;18.17;7.88;;;8.80;99.90;;;;;;4040672;29;20506;-84
2023/04/29 05:38:04;;;;;;;15.68;7.07;;;8.90;99.90;;;;;;4023021;29;20045;-84
2023/04/29 05:40:06;;;;;;;16.88;7.70;;;8.90;99.90;;;;;;4040250;29;20052;-84
2023/04/29 05:42:07;;;;;;;17.40;7.57;;;8.90;99.90;;;;;;4032072;29;20091;-84
2023/04/29 05:44:07;;;;;;;15.75;6.97;;;9.00;99.90;;;;;;4007917;29;20081;-84
2023/04/29 05:46:08;;;;;;;13.82;7.88;;;9.00;99.90;;;;;;4023032;29;20050;-84
2023/04/29 05:48:11;;;;;;;19.52;6.88;;;9.00;99.90;;;;;;4023544;29;20049;-84
2023/04/29 05:50:12;;;;;;;11.70;6.50;;;9.10;99.90;;;;;;4040033;29;20053;-84
2023/04/29 05:52:14;;;;;;;17.60;7.25;;;9.10;99.90;;;;;;4039012;29;20160;-84
2023/04/29 05:54:15;;;;;;;12.05;6.75;;;9.10;99.90;;;;;;4023460;29;20049;-84
2023/04/29 05:56:16;;;;;;;17.02;7.03;;;9.20;99.90;;;;;;4038595;29;20052;-84
2023/04/29 05:58:17;;;;;;;17.40;8.05;;;9.30;99.90;;;;;;4023534;29;20535;-84
2023/04/29 06:00:18;;;;;;;13.93;7.13;;;9.30;99.90;;;;;;4042000;29;20048;-84
2023/04/29 06:02:20;;;;;;;16.13;7.10;;;9.30;99.90;;;;;;4054209;29;20041;-84
2023/04/29 06:04:21;;;;;;;14.75;6.43;;;9.40;99.90;;;;;;4038511;29;20521;-86
2023/04/29 06:06:22;;;;;;;16.70;7.38;;;9.40;99.90;;;;;;4037353;29;20049;-85
2023/04/29 06:08:23;;;;;;;16.50;7.10;;;9.50;99.90;;;;;;4039174;29;20105;-85
2023/04/29 06:10:23;;;;;;;12.27;6.50;;;9.50;99.90;;;;;;4039405;29;20072;-85
2023/04/29 06:12:25;;;;;;;13.65;6.90;;;9.50;99.90;;;;;;4039024;29;20033;-85
2023/04/29 06:14:26;;;;;;;14.85;6.80;;;9.60;99.90;;;;;;4038803;29;20068;-85
2023/04/29 06:16:27;;;;;;;13.15;7.20;;;9.70;99.90;;;;;;4055947;29;20406;-85
2023/04/29 06:18:33;;;;;;;14.85;7.35;;;9.70;99.90;;;;;;4037639;29;20101;-85
2023/04/29 06:20:34;;;;;;;14.88;6.13;;;9.80;99.90;;;;;;4023223;29;20049;-85
2023/04/29 06:22:34;;;;;;;11.50;5.75;;;9.90;99.90;;;;;;4038685;29;20057;-85
2023/04/29 06:24:35;;;;;;;13.27;5.75;;;10.00;99.90;;;;;;4038545;29;20510;-85
2023/04/29 06:26:37;;;;;;;11.82;6.00;;;10.10;99.90;;;;;;4054955;29;20052;-85
2023/04/29 06:28:37;;;;;;;14.85;6.85;;;10.10;99.90;;;;;;4054675;29;20044;-85
2023/04/29 06:30:38;;;;;;;11.95;5.40;;;10.20;99.90;;;;;;4039688;29;20053;-85
2023/04/29 06:32:39;;;;;;;11.82;6.05;;;10.30;99.90;;;;;;4022562;29;20054;-86
2023/04/29 06:34:41;;;;;;;15.57;6.55;;;10.30;99.90;;;;;;4023916;29;20378;-86
2023/04/29 06:36:42;;;;;;;14.40;6.50;;;10.40;99.90;;;;;;4038047;29;20045;-85
2023/04/29 06:38:43;;;;;;;16.13;6.07;;;10.50;99.90;;;;;;4055054;29;20051;-85
2023/04/29 06:40:44;;;;;;;14.63;5.95;;;10.50;99.90;;;;;;4038862;29;20057;-86
2023/04/29 06:42:45;;;;;;;11.70;5.78;;;10.60;99.90;;;;;;4055290;29;20421;-86
2023/04/29 06:44:46;;;;;;;12.95;6.18;;;10.60;99.90;;;;;;4056079;29;20049;-86
2023/04/29 06:46:46;;;;;;;15.30;7.63;;;10.70;99.90;;;;;;4038047;29;20045;-86
2023/04/29 06:48:47;;;;;;;11.18;5.22;;;10.80;99.90;;;;;;4039531;29;20063;-86
2023/04/29 06:50:56;;;;;;;11.25;5.90;;;10.80;99.90;;;;;;4025271;29;20120;-86
2023/04/29 06:52:58;;;;;;;17.00;5.70;;;10.90;99.90;;;;;;4053373;29;20045;-86
2023/04/29 06:55:00;;;;;;;13.40;5.90;;;11.00;99.90;;;;;;4050596;29;20053;-85
2023/04/29 06:57:01;;;;;;;13.23;5.45;;;11.10;99.90;;;;;;4038254;29;20108;-85
2023/04/29 06:59:03;;;;;;;15.80;6.32;;;11.20;99.90;;;;;;4055963;29;20045;-85
2023/04/29 07:01:05;;;;;;;12.20;5.90;;;11.30;99.90;;;;;;4038033;29;20418;-85
2023/04/29 07:03:06;;;;;;;12.18;6.30;;;11.40;99.90;;;;;;4023317;29;20125;-85
2023/04/29 07:05:07;;;;;;;13.55;6.45;;;11.50;99.90;;;;;;4038916;29;20531;-85
2023/04/29 07:07:09;;;;;;;13.00;5.75;;;11.60;99.90;;;;;;4054711;29;20078;-85
2023/04/29 07:09:10;;;;;;;12.93;5.65;;;11.60;99.90;;;;;;4055111;29;20131;-85
2023/04/29 07:11:11;;;;;;;16.42;6.20;;;11.70;99.90;;;;;;4038458;29;20063;-85
2023/04/29 07:13:16;;;;;;;16.50;5.90;;;11.80;99.90;;;;;;4039204;29;20125;-85
2023/04/29 07:15:16;;;;;;;10.93;5.30;;;11.80;99.90;;;;;;4053386;29;20099;-85
2023/04/29 07:17:18;;;;;;;11.00;5.15;;;11.90;99.90;;;;;;4039049;29;20045;-85
2023/04/29 07:19:20;;;;;;;11.10;4.75;;;12.00;99.90;;;;;;4049074;29;20045;-88
2023/04/29 07:21:23;;;;;;;12.63;5.07;;;12.10;99.90;;;;;;4032971;29;20055;-87
2023/04/29 07:23:25;;;;;;;13.13;4.32;;;12.20;99.90;;;;;;4056033;29;20053;-86
2023/04/29 07:25:28;;;;;;;10.35;4.60;;;12.30;99.90;;;;;;4049250;29;20036;-86
2023/04/29 07:27:34;;;;;;;10.05;4.10;;;12.30;99.90;;;;;;4055104;29;20051;-88
2023/04/29 07:29:35;;;;;;;10.25;4.25;;;12.50;99.90;;;;;;4071078;29;20036;-84
2023/04/29 07:31:37;;;;;;;10.43;4.68;;;12.60;99.90;;;;;;4038199;29;20091;-85
2023/04/29 07:33:38;;;;;;;11.30;5.18;;;12.70;99.90;;;;;;4052892;29;20065;-83
2023/04/29 07:35:42;;;;;;;15.15;4.75;;;12.80;99.90;;;;;;4053954;29;20048;-85
2023/04/29 07:37:42;;;;;;;8.55;4.03;;;12.80;99.90;;;;;;4032445;29;20182;-84
2023/04/29 07:39:43;;;;;;;9.77;4.03;;;12.90;99.90;;;;;;4022686;29;20061;-83
2023/04/29 07:41:44;;;;;;;8.20;3.53;;;13.10;99.90;;;;;;4039954;29;20395;-84
2023/04/29 07:43:45;;;;;;;12.80;4.45;;;13.20;99.90;;;;;;4022942;29;20183;-83
2023/04/29 07:45:48;;;;;;;9.07;4.22;;;13.20;99.90;;;;;;4039584;29;20045;-84
2023/04/29 07:47:50;;;;;;;8.07;4.60;;;13.30;99.90;;;;;;4023965;29;20049;-84
2023/04/29 07:49:51;;;;;;;15.25;4.80;;;13.40;99.90;;;;;;4024188;29;20059;-86
2023/04/29 07:52:04;;;;;;;9.15;3.90;;;13.60;99.90;;;;;;4023897;29;20058;-84
2023/04/29 07:54:06;;;;;;;8.20;3.53;;;13.70;99.90;;;;;;4040784;29;20118;-83
2023/04/29 07:56:08;;;;;;;12.70;4.32;;;13.80;99.90;;;;;;4040697;29;20400;-85
2023/04/29 07:58:08;;;;;;;10.98;4.30;;;13.90;99.90;;;;;;4040495;29;20049;-83
2023/04/29 08:00:09;;;;;;;10.48;4.15;;;14.00;99.90;;;;;;4041506;29;20045;-84
2023/04/29 08:02:11;;;;;;;9.98;4.32;;;14.10;99.90;;;;;;4054137;29;20057;-82
2023/04/29 08:04:12;;;;;;;9.32;4.28;;;14.30;99.90;;;;;;4054756;29;20049;-85
2023/04/29 08:06:13;;;;;;;13.40;3.90;;;14.50;99.90;;;;;;4038819;29;20044;-84
2023/04/29 08:08:20;;;;;;;9.10;3.67;;;14.60;99.90;;;;;;4037381;29;20184;-81
2023/04/29 08:10:21;;;;;;;8.55;3.70;;;14.70;99.90;;;;;;4036704;29;20113;-83
2023/04/29 08:12:22;;;;;;;9.77;4.13;;;14.80;99.90;;;;;;4023156;29;20060;-84
2023/04/29 08:14:22;;;;;;;8.75;4.28;;;14.80;99.90;;;;;;4050338;29;20057;-84
2023/04/29 08:16:24;;;;;;;8.95;3.67;;;15.00;99.90;;;;;;4054429;29;20500;-85
2023/04/29 08:18:26;;;;;;;7.80;4.25;;;15.10;99.90;;;;;;4038450;29;20052;-84
2023/04/29 08:20:29;;;;;;;10.43;4.18;;;15.30;99.90;;;;;;4057373;29;20040;-85
2023/04/29 08:22:29;;;;;;;12.27;4.30;;;15.50;99.90;;;;;;4057868;29;20411;-84
2023/04/29 08:24:32;;;;;;;10.73;3.85;;;15.60;99.90;;;;;;4040073;29;20057;-84
2023/04/29 08:26:33;;;;;;;8.90;3.80;;;15.70;99.90;;;;;;4056444;29;20052;-83
2023/04/29 08:28:33;;;;;;;12.52;4.15;;;15.80;99.90;;;;;;4038898;29;20053;-83
2023/04/29 08:30:37;;;;;;;10.70;4.03;;;15.70;99.90;;;;;;4055470;29;20048;-84
2023/04/29 08:32:38;;;;;;;7.80;3.92;;;15.90;99.90;;;;;;4056960;29;20056;-85
2023/04/29 08:34:40;;;;;;;14.13;4.43;;;16.00;99.90;;;;;;4059840;29;20060;-84
2023/04/29 08:36:42;;;;;;;12.02;4.95;;;16.20;99.90;;;;;;4056765;29;20049;-84
2023/04/29 08:38:43;;;;;;;9.57;3.78;;;16.40;99.90;;;;;;4048268;29;20060;-84
2023/04/29 08:40:45;;;;;;;11.45;4.28;;;;;;;;;;4040012;29;20052;-85
2023/04/29 08:42:48;;;;;;;8.55;3.53;;;;;;;;;;4047883;29;20053;-87
2023/04/29 08:44:51;;;;;;;10.27;4.05;;;16.60;99.90;;;;;;4056145;29;20494;-88
2023/04/29 08:46:56;;;;;;;7.55;3.83;;;16.80;99.90;;;;;;4056000;29;20128;-84
2023/04/29 08:48:58;;;;;;;7.88;3.33;;;;;;;;;;4057247;29;20059;-85
2023/04/29 08:51:01;;;;;;;6.88;3.38;;;;;;;;;;4043447;29;20060;-84
2023/04/29 08:53:03;;;;;;;10.10;3.13;;;;;;;;;;4068681;29;20048;-86
2023/04/29 08:55:05;;;;;;;7.38;2.65;;;;;;;;;;4055159;29;20071;-86
2023/04/29 08:57:06;;;;;;;8.48;2.78;;;;;;;;;;4054605;29;20044;-87
2023/04/29 08:59:09;;;;;;;5.20;2.20;;;;;;;;;;4055831;29;20048;-86
2023/04/29 09:01:10;;;;;;;7.88;2.63;;;16.80;99.90;;;;;;4038982;29;20121;-86
2023/04/29 09:03:30;;;;;;;8.93;2.28;;;17.40;99.90;;;;;;4054919;29;20196;-86
2023/04/29 09:05:33;;;;;;;7.63;2.40;;;17.60;99.90;;;;;;4054073;29;20123;-86
2023/04/29 09:07:35;;;;;;;7.97;2.20;;;;;;;;;;4055080;29;20051;-87
2023/04/29 09:09:38;;;;;;;4.93;1.98;;;17.70;99.90;;;;;;4038071;29;20140;-86
2023/04/29 09:11:40;;;;;;;5.03;2.30;;;17.90;99.90;;;;;;4054973;29;20509;-87
2023/04/29 09:13:40;;;;;;;7.47;2.45;;;18.00;99.90;;;;;;4056997;29;20095;-87
2023/04/29 09:15:42;;;;;;;6.20;2.60;;;;;;;;;;4057248;29;20052;-87
2023/04/29 09:17:47;;;;;;;13.05;3.30;;;18.20;99.90;;;;;;4039331;29;20128;-86
2023/04/29 09:19:48;;;;;;;7.32;2.55;;;18.50;99.90;;;;;;4055169;29;20051;-87
2023/04/29 09:21:55;;;;;;;8.10;2.45;;;;;;;;;;4054057;29;20076;-87
2023/04/29 09:24:01;;;;;;;5.38;2.90;;;18.60;99.90;;;;;;4037107;29;20041;-86
2023/04/29 09:26:03;;;;;;;9.88;2.75;;;18.90;99.90;;;;;;4038314;29;20053;-87
2023/04/29 09:28:17;;;;;;;6.50;3.25;;;19.00;99.90;;;;;;4055205;29;20136;-86
2023/04/29 09:30:20;;;;;;;7.47;2.28;;;18.90;99.90;;;;;;4054507;29;20055;-86
2023/04/29 09:32:21;;;;;;;7.95;2.78;;;18.90;99.90;;;;;;4056449;29;20056;-86
2023/04/29 09:34:34;;;;;;;6.00;2.65;;;19.00;99.90;;;;;;4056414;29;20053;-86
2023/04/29 09:36:49;;;;;;;8.20;2.80;;;19.30;99.90;;;;;;4056583;29;20049;-86
2023/04/29 09:38:57;;;;;;;4.93;2.92;;;19.50;99.90;;;;;;4053925;29;20053;-87
2023/04/29 09:40:58;;;;;;;9.65;2.90;;;19.70;99.90;;;;;;4040198;29;20140;-86
2023/04/29 09:43:00;;;;;;;7.13;3.47;;;19.90;99.90;;;;;;4041060;29;20053;-87
2023/04/29 09:45:01;;;;;;;7.50;2.80;;;20.10;99.90;;;;;;4041646;29;20477;-85
2023/04/29 09:47:04;;;;;;;6.20;2.50;;;20.20;99.80;;;;;;4040513;29;20892;-86
2023/04/29 09:49:25;;;;;;;7.72;3.22;;;;;;;;;;4052393;29;20052;-87
2023/04/29 09:51:27;;;;;;;7.47;2.70;;;;;;;;;;4039779;29;20125;-87
2023/04/29 09:53:30;;;;;;;8.85;2.70;;;;;;;;;;4056625;29;20055;-87
2023/04/29 09:55:31;;;;;;;11.13;2.90;;;;;;;;;;4057911;29;20052;-87
2023/04/29 09:57:44;;;;;;;10.85;3.60;;;;;;;;;;4055793;29;20437;-87
2023/04/29 09:59:45;;;;;;;8.25;3.40;;;;;;;;;;4055407;29;20509;-87
2023/04/29 10:01:56;;;;;;;6.60;3.15;;;;;;;;;;4038557;29;20514;-87
2023/04/29 10:03:59;;;;;;;10.93;3.95;;;;;;;;;;4054378;29;20059;-86
2023/04/29 10:06:01;;;;;;;8.73;3.20;;;;;;;;;;4054432;29;20051;-87
2023/04/29 10:08:03;;;;;;;8.88;4.35;;;;;;;;;;4054705;29;20044;-86
2023/04/29 10:10:04;;;;;;;5.57;3.20;;;;;;;;;;4056208;29;20406;-87
2023/04/29 10:12:06;;;;;;;8.07;3.40;;;;;;;;;;4039850;29;20033;-86
2023/04/29 10:14:12;;;;;;;8.57;3.35;;;;;;;;;;4055562;29;20057;-86
2023/04/29 10:16:13;;;;;;;5.57;3.25;;;;;;;;;;4056230;29;20044;-86
2023/04/29 10:18:15;;;;;;;9.15;3.45;;;;;;;;;;4055296;29;20461;-86
2023/04/29 10:20:23;;;;;;;6.57;3.45;;;;;;;;;;4038830;29;20486;-86
2023/04/29 10:22:35;;;;;;;9.38;3.92;;;;;;;;;;4045758;29;20104;-85
2023/04/29 10:24:37;;;;;;;7.50;3.13;;;;;;;;;;4039068;29;20383;-84
2023/04/29 10:26:38;;;;;;;5.57;2.35;;;;;;;;;;4038850;29;20041;-83
2023/04/29 10:28:40;;;;;;;6.15;2.47;;;;;;;;;;4022877;29;20053;-83
2023/04/29 10:30:43;;;;;;;5.38;2.40;;;;;;;;;;4039428;29;20109;-83
2023/04/29 10:32:46;;;;;;;7.22;2.60;;;;;;;;;;4023319;29;20049;-83
2023/04/29 10:34:48;;;;;;;4.90;2.17;;;;;;;;;;4039328;29;20049;-83
2023/04/29 10:36:50;;;;;;;4.40;2.00;;;;;;;;;;4040365;29;20143;-86
2023/04/29 10:38:59;;;;;;;4.60;2.05;;;;;;;;;;4034444;29;20049;-85
2023/04/29 10:41:03;;;;;;;3.92;1.73;;;;;;;;;;4038544;29;20049;-86
2023/04/29 10:43:05;;;;;;;4.78;1.80;;;20.40;99.60;;;;;;4055004;29;20045;-86
2023/04/29 10:45:30;;;;;;;7.13;2.10;;;22.20;82.70;;;;;;4054681;29;20123;-86